BTK205 WIII-WMKK
Flight info
| Callsign | BTK205 |
|---|---|
| Flight time | N/A |
| Altitude | 38000 |
| Route | DOLTA2A/07L DOLTA A585 PKU/N0460F370 N633 SALAX SALAX1H/32R |
| Aircraft | A320/M-SDE3FGHIRWY/LB1 |
Departure
| Time | N/A |
|---|---|
| Airport | Soekarno-Hatta International Airport (WIII) |
Arrival
| Time | 2026-05-06 14:44 |
|---|---|
| Airport | Kuala Lumpur International Airport (WMKK) |
| Time | Latitude | Longitude | Altitude | Speed | Heading |
|---|---|---|---|---|---|
| 2026-05-06 13:23 | -4.47896 | 105.55665 | 28914 ft | 471 kts | 332° |
| 2026-05-06 13:24 | -4.45022 | 105.54031 | 29051 ft | 476 kts | 332° |
| 2026-05-06 13:24 | -4.42162 | 105.52406 | 29178 ft | 480 kts | 332° |
| 2026-05-06 13:24 | -4.39249 | 105.50749 | 29352 ft | 483 kts | 332° |
| 2026-05-06 13:24 | -4.36323 | 105.49084 | 29604 ft | 484 kts | 332° |
| 2026-05-06 13:25 | -4.33397 | 105.47417 | 29918 ft | 484 kts | 332° |
| 2026-05-06 13:25 | -4.30464 | 105.45746 | 30196 ft | 483 kts | 332° |
| 2026-05-06 13:25 | -4.27549 | 105.44088 | 30492 ft | 482 kts | 332° |
| 2026-05-06 13:25 | -4.24625 | 105.42428 | 30785 ft | 481 kts | 332° |
| 2026-05-06 13:26 | -4.22690 | 105.41328 | 30988 ft | 480 kts | 332° |
| 2026-05-06 13:26 | -4.19785 | 105.39680 | 31292 ft | 479 kts | 332° |
| 2026-05-06 13:26 | -4.16888 | 105.38036 | 31603 ft | 478 kts | 331° |
| 2026-05-06 13:26 | -4.13991 | 105.36391 | 31913 ft | 477 kts | 331° |
| 2026-05-06 13:27 | -4.11099 | 105.34748 | 32226 ft | 476 kts | 331° |
| 2026-05-06 13:27 | -4.08260 | 105.33134 | 32539 ft | 475 kts | 331° |
| 2026-05-06 13:27 | -4.05391 | 105.31502 | 32858 ft | 474 kts | 331° |
| 2026-05-06 13:27 | -4.02519 | 105.29868 | 33174 ft | 473 kts | 331° |
| 2026-05-06 13:28 | -3.99656 | 105.28240 | 33498 ft | 472 kts | 331° |
| 2026-05-06 13:28 | -3.96798 | 105.26619 | 33790 ft | 472 kts | 331° |
| 2026-05-06 13:28 | -3.93971 | 105.25017 | 34064 ft | 472 kts | 331° |
| 2026-05-06 13:28 | -3.91110 | 105.23396 | 34343 ft | 471 kts | 331° |
| 2026-05-06 13:29 | -3.88265 | 105.21789 | 34628 ft | 469 kts | 331° |
| 2026-05-06 13:29 | -3.85424 | 105.20191 | 34902 ft | 468 kts | 331° |
| 2026-05-06 13:29 | -3.82579 | 105.18593 | 35175 ft | 467 kts | 331° |
| 2026-05-06 13:29 | -3.79752 | 105.17005 | 35439 ft | 466 kts | 331° |
| 2026-05-06 13:30 | -3.76926 | 105.15416 | 35704 ft | 465 kts | 331° |
| 2026-05-06 13:30 | -3.74109 | 105.13830 | 35965 ft | 464 kts | 331° |
| 2026-05-06 13:30 | -3.71300 | 105.12247 | 36209 ft | 463 kts | 331° |
| 2026-05-06 13:30 | -3.68493 | 105.10664 | 36448 ft | 462 kts | 331° |
| 2026-05-06 13:31 | -3.65692 | 105.09085 | 36688 ft | 461 kts | 331° |
| 2026-05-06 13:31 | -3.62888 | 105.07506 | 36913 ft | 461 kts | 331° |
| 2026-05-06 13:31 | -3.60093 | 105.05933 | 37135 ft | 460 kts | 331° |
| 2026-05-06 13:31 | -3.57308 | 105.04366 | 37351 ft | 459 kts | 331° |
| 2026-05-06 13:32 | -3.54551 | 105.02815 | 37561 ft | 459 kts | 331° |
| 2026-05-06 13:32 | -3.51764 | 105.01246 | 37772 ft | 458 kts | 331° |
| 2026-05-06 13:32 | -3.48980 | 104.99677 | 37863 ft | 459 kts | 331° |
| 2026-05-06 13:33 | -3.43401 | 104.96543 | 37869 ft | 459 kts | 331° |
| 2026-05-06 13:33 | -3.37816 | 104.93402 | 37870 ft | 459 kts | 331° |
| 2026-05-06 13:34 | -3.32246 | 104.90268 | 37869 ft | 466 kts | 331° |
| 2026-05-06 13:34 | -3.26534 | 104.87055 | 37875 ft | 474 kts | 331° |
| 2026-05-06 13:35 | -3.20782 | 104.83821 | 37871 ft | 478 kts | 331° |
| 2026-05-06 13:35 | -3.14978 | 104.80556 | 37869 ft | 478 kts | 331° |
| 2026-05-06 13:36 | -3.09171 | 104.77292 | 37868 ft | 478 kts | 331° |
| 2026-05-06 13:36 | -3.03362 | 104.74027 | 37867 ft | 479 kts | 331° |
| 2026-05-06 13:37 | -2.97542 | 104.70762 | 37865 ft | 479 kts | 331° |
| 2026-05-06 13:37 | -2.91744 | 104.67503 | 37867 ft | 477 kts | 332° |
| 2026-05-06 13:38 | -2.86303 | 104.63798 | 37864 ft | 478 kts | 317° |
| 2026-05-06 13:38 | -2.81536 | 104.59144 | 37868 ft | 478 kts | 317° |
| 2026-05-06 13:39 | -2.76755 | 104.54484 | 37883 ft | 479 kts | 317° |
| 2026-05-06 13:39 | -2.72000 | 104.49861 | 37891 ft | 479 kts | 317° |
| 2026-05-06 13:40 | -2.67213 | 104.45195 | 37893 ft | 480 kts | 317° |
| 2026-05-06 13:40 | -2.62433 | 104.40528 | 37894 ft | 480 kts | 317° |
| 2026-05-06 13:41 | -2.57652 | 104.35867 | 37900 ft | 480 kts | 317° |
| 2026-05-06 13:41 | -2.52887 | 104.31223 | 37894 ft | 480 kts | 317° |
| 2026-05-06 13:42 | -2.48087 | 104.26548 | 37885 ft | 481 kts | 317° |
| 2026-05-06 13:42 | -2.43294 | 104.21874 | 37889 ft | 481 kts | 317° |
| 2026-05-06 13:43 | -2.38494 | 104.17199 | 37903 ft | 481 kts | 317° |
| 2026-05-06 13:43 | -2.33698 | 104.12530 | 37898 ft | 481 kts | 317° |
| 2026-05-06 13:44 | -2.28930 | 104.07883 | 37898 ft | 481 kts | 317° |
| 2026-05-06 13:44 | -2.24127 | 104.03199 | 37902 ft | 481 kts | 317° |
| 2026-05-06 13:45 | -2.19329 | 103.98524 | 37892 ft | 481 kts | 317° |
| 2026-05-06 13:45 | -2.12155 | 103.91538 | 37893 ft | 482 kts | 317° |
| 2026-05-06 13:46 | -2.07339 | 103.86853 | 37881 ft | 481 kts | 317° |
| 2026-05-06 13:46 | -2.02526 | 103.82174 | 37882 ft | 484 kts | 317° |
| 2026-05-06 13:47 | -1.97695 | 103.77471 | 37885 ft | 485 kts | 316° |
| 2026-05-06 13:47 | -1.92892 | 103.72787 | 37885 ft | 485 kts | 316° |
| 2026-05-06 13:48 | -1.88055 | 103.68073 | 37883 ft | 485 kts | 317° |
| 2026-05-06 13:48 | -1.83240 | 103.63391 | 37887 ft | 485 kts | 316° |
| 2026-05-06 13:49 | -1.78399 | 103.58686 | 37889 ft | 485 kts | 316° |
| 2026-05-06 13:49 | -1.73554 | 103.53976 | 37899 ft | 485 kts | 316° |
| 2026-05-06 13:50 | -1.68721 | 103.49266 | 37898 ft | 485 kts | 316° |
| 2026-05-06 13:50 | -1.63904 | 103.44568 | 37895 ft | 486 kts | 316° |
| 2026-05-06 13:51 | -1.59055 | 103.39856 | 37897 ft | 487 kts | 317° |
| 2026-05-06 13:51 | -1.54192 | 103.35136 | 37898 ft | 487 kts | 317° |
| 2026-05-06 13:52 | -1.49323 | 103.30398 | 37900 ft | 487 kts | 316° |
| 2026-05-06 13:52 | -1.44492 | 103.25696 | 37907 ft | 487 kts | 316° |
| 2026-05-06 13:53 | -1.39614 | 103.20955 | 37904 ft | 487 kts | 316° |
| 2026-05-06 13:53 | -1.34749 | 103.16220 | 37907 ft | 488 kts | 316° |
| 2026-05-06 13:54 | -1.29916 | 103.11517 | 37920 ft | 487 kts | 317° |
| 2026-05-06 13:54 | -1.25048 | 103.06786 | 37915 ft | 487 kts | 317° |
| 2026-05-06 13:55 | -1.20202 | 103.02064 | 37920 ft | 486 kts | 317° |
| 2026-05-06 13:55 | -1.15352 | 102.97348 | 37912 ft | 486 kts | 317° |
| 2026-05-06 13:56 | -1.10497 | 102.92633 | 37917 ft | 486 kts | 317° |
| 2026-05-06 13:56 | -1.05671 | 102.87941 | 37918 ft | 486 kts | 317° |
| 2026-05-06 13:57 | -1.00820 | 102.83226 | 37917 ft | 486 kts | 317° |
| 2026-05-06 13:57 | -0.95961 | 102.78522 | 37918 ft | 485 kts | 317° |
| 2026-05-06 13:58 | -0.91128 | 102.73849 | 37913 ft | 485 kts | 317° |
| 2026-05-06 13:58 | -0.86269 | 102.69142 | 37908 ft | 485 kts | 317° |
| 2026-05-06 13:59 | -0.81421 | 102.64424 | 37909 ft | 485 kts | 317° |
| 2026-05-06 13:59 | -0.76605 | 102.59744 | 37901 ft | 485 kts | 317° |
| 2026-05-06 14:00 | -0.71760 | 102.55049 | 37895 ft | 485 kts | 317° |
| 2026-05-06 14:00 | -0.66916 | 102.50345 | 37896 ft | 485 kts | 317° |
| 2026-05-06 14:01 | -0.62072 | 102.45644 | 37890 ft | 485 kts | 317° |
| 2026-05-06 14:01 | -0.57221 | 102.40937 | 37884 ft | 485 kts | 317° |
| 2026-05-06 14:02 | -0.52406 | 102.36268 | 37886 ft | 485 kts | 317° |
| 2026-05-06 14:02 | -0.47552 | 102.31568 | 37879 ft | 485 kts | 317° |
| 2026-05-06 14:03 | -0.42698 | 102.26857 | 37875 ft | 486 kts | 317° |
| 2026-05-06 14:03 | -0.37872 | 102.22182 | 37873 ft | 486 kts | 317° |
| 2026-05-06 14:04 | -0.33011 | 102.17470 | 37884 ft | 486 kts | 317° |
| 2026-05-06 14:04 | -0.28158 | 102.12757 | 37873 ft | 486 kts | 317° |
| 2026-05-06 14:05 | -0.23296 | 102.08042 | 37881 ft | 486 kts | 317° |
| 2026-05-06 14:05 | -0.18433 | 102.03332 | 37871 ft | 486 kts | 317° |
| 2026-05-06 14:06 | -0.13605 | 101.98648 | 37872 ft | 487 kts | 317° |
| 2026-05-06 14:06 | -0.08745 | 101.93923 | 37869 ft | 487 kts | 317° |
| 2026-05-06 14:07 | -0.03902 | 101.89219 | 37873 ft | 488 kts | 317° |
| 2026-05-06 14:07 | 0.00969 | 101.84503 | 37867 ft | 488 kts | 317° |
| 2026-05-06 14:08 | 0.05837 | 101.79783 | 37864 ft | 487 kts | 317° |
| 2026-05-06 14:08 | 0.10712 | 101.75056 | 37867 ft | 487 kts | 317° |
| 2026-05-06 14:09 | 0.15556 | 101.70352 | 37857 ft | 487 kts | 317° |
| 2026-05-06 14:09 | 0.20417 | 101.65632 | 37858 ft | 487 kts | 316° |
| 2026-05-06 14:10 | 0.25286 | 101.60918 | 37859 ft | 487 kts | 317° |
| 2026-05-06 14:10 | 0.30130 | 101.56231 | 37856 ft | 487 kts | 316° |
| 2026-05-06 14:11 | 0.34996 | 101.51512 | 37859 ft | 487 kts | 316° |
| 2026-05-06 14:11 | 0.40099 | 101.47196 | 37833 ft | 470 kts | 330° |
| 2026-05-06 14:12 | 0.43018 | 101.45785 | 37839 ft | 464 kts | 341° |
| 2026-05-06 14:12 | 0.46111 | 101.44938 | 37839 ft | 460 kts | 352° |
| 2026-05-06 14:12 | 0.52482 | 101.44839 | 37839 ft | 458 kts | 5° |
| 2026-05-06 14:13 | 0.57762 | 101.45204 | 37837 ft | 458 kts | 5° |
| 2026-05-06 14:13 | 0.62007 | 101.45494 | 36961 ft | 466 kts | 5° |
| 2026-05-06 14:13 | 0.65252 | 101.45716 | 36355 ft | 469 kts | 5° |
| 2026-05-06 14:14 | 0.68519 | 101.45938 | 35576 ft | 471 kts | 5° |
| 2026-05-06 14:14 | 0.71776 | 101.46157 | 35032 ft | 467 kts | 5° |
| 2026-05-06 14:14 | 0.73925 | 101.46301 | 34618 ft | 466 kts | 5° |
| 2026-05-06 14:14 | 0.77173 | 101.46521 | 33940 ft | 467 kts | 5° |
| 2026-05-06 14:15 | 0.80417 | 101.46742 | 33370 ft | 466 kts | 5° |
| 2026-05-06 14:15 | 0.83659 | 101.46965 | 33119 ft | 469 kts | 5° |
| 2026-05-06 14:15 | 0.86923 | 101.47190 | 32870 ft | 470 kts | 5° |
| 2026-05-06 14:15 | 0.90203 | 101.47417 | 32624 ft | 471 kts | 5° |
| 2026-05-06 14:16 | 0.93477 | 101.47645 | 32374 ft | 472 kts | 5° |
| 2026-05-06 14:16 | 0.96772 | 101.47871 | 32132 ft | 473 kts | 5° |
| 2026-05-06 14:16 | 1.00056 | 101.48093 | 31893 ft | 473 kts | 5° |
| 2026-05-06 14:16 | 1.03297 | 101.48314 | 31662 ft | 474 kts | 6° |
| 2026-05-06 14:17 | 1.06595 | 101.48538 | 31422 ft | 474 kts | 6° |
| 2026-05-06 14:17 | 1.09888 | 101.48762 | 31188 ft | 475 kts | 6° |
| 2026-05-06 14:17 | 1.13194 | 101.48986 | 30954 ft | 475 kts | 6° |
| 2026-05-06 14:17 | 1.16497 | 101.49213 | 30723 ft | 476 kts | 6° |
| 2026-05-06 14:18 | 1.19808 | 101.49440 | 30505 ft | 477 kts | 6° |
| 2026-05-06 14:18 | 1.23129 | 101.49666 | 30278 ft | 478 kts | 6° |
| 2026-05-06 14:18 | 1.26461 | 101.49890 | 30053 ft | 479 kts | 6° |
| 2026-05-06 14:18 | 1.29795 | 101.50116 | 29814 ft | 480 kts | 6° |
| 2026-05-06 14:19 | 1.33132 | 101.50346 | 29548 ft | 480 kts | 6° |
| 2026-05-06 14:19 | 1.36464 | 101.50577 | 29291 ft | 481 kts | 6° |
| 2026-05-06 14:19 | 1.39781 | 101.50803 | 29027 ft | 482 kts | 6° |
| 2026-05-06 14:19 | 1.43133 | 101.51032 | 28770 ft | 482 kts | 6° |
| 2026-05-06 14:20 | 1.46475 | 101.51263 | 28512 ft | 483 kts | 6° |
| 2026-05-06 14:20 | 1.49833 | 101.51493 | 28262 ft | 481 kts | 6° |
| 2026-05-06 14:20 | 1.53163 | 101.51719 | 28011 ft | 479 kts | 6° |
| 2026-05-06 14:20 | 1.56480 | 101.51945 | 27763 ft | 477 kts | 6° |
| 2026-05-06 14:21 | 1.59793 | 101.52172 | 27516 ft | 475 kts | 6° |
| 2026-05-06 14:21 | 1.63093 | 101.52397 | 27270 ft | 473 kts | 6° |
| 2026-05-06 14:21 | 1.66332 | 101.52617 | 26991 ft | 471 kts | 6° |
| 2026-05-06 14:21 | 1.69598 | 101.52842 | 26183 ft | 468 kts | 6° |
| 2026-05-06 14:22 | 1.72832 | 101.53065 | 25406 ft | 465 kts | 6° |
| 2026-05-06 14:22 | 1.76058 | 101.53285 | 24633 ft | 463 kts | 6° |
| 2026-05-06 14:22 | 1.79269 | 101.53502 | 23874 ft | 461 kts | 6° |
| 2026-05-06 14:22 | 1.82468 | 101.53719 | 23066 ft | 460 kts | 6° |
| 2026-05-06 14:23 | 1.85645 | 101.53936 | 22315 ft | 455 kts | 6° |
| 2026-05-06 14:23 | 1.88800 | 101.54154 | 21621 ft | 450 kts | 6° |
| 2026-05-06 14:23 | 1.91905 | 101.54413 | 20778 ft | 447 kts | 11° |
| 2026-05-06 14:23 | 1.94879 | 101.55298 | 19849 ft | 446 kts | 27° |
| 2026-05-06 14:24 | 1.97454 | 101.56896 | 19086 ft | 428 kts | 40° |
| 2026-05-06 14:24 | 1.99482 | 101.59018 | 17956 ft | 417 kts | 56° |
| 2026-05-06 14:24 | 2.00843 | 101.61544 | 16700 ft | 409 kts | 70° |
| 2026-05-06 14:24 | 2.01720 | 101.64185 | 15482 ft | 403 kts | 72° |
| 2026-05-06 14:25 | 2.02586 | 101.66828 | 14341 ft | 397 kts | 72° |
| 2026-05-06 14:25 | 2.03444 | 101.69436 | 13177 ft | 392 kts | 72° |
| 2026-05-06 14:25 | 2.04287 | 101.71982 | 12524 ft | 373 kts | 72° |
| 2026-05-06 14:25 | 2.05076 | 101.74351 | 12363 ft | 343 kts | 72° |
| 2026-05-06 14:26 | 2.05804 | 101.76529 | 12243 ft | 317 kts | 72° |
| 2026-05-06 14:26 | 2.06473 | 101.78524 | 12117 ft | 295 kts | 72° |
| 2026-05-06 14:26 | 2.07107 | 101.80427 | 11791 ft | 284 kts | 72° |
| 2026-05-06 14:26 | 2.07725 | 101.82287 | 11288 ft | 280 kts | 72° |
| 2026-05-06 14:27 | 2.08337 | 101.84128 | 10754 ft | 278 kts | 72° |
| 2026-05-06 14:27 | 2.08941 | 101.85951 | 10311 ft | 272 kts | 72° |
| 2026-05-06 14:27 | 2.09537 | 101.87749 | 10197 ft | 273 kts | 72° |
| 2026-05-06 14:27 | 2.10043 | 101.89572 | 10083 ft | 272 kts | 83° |
| 2026-05-06 14:28 | 2.10041 | 101.91448 | 9980 ft | 270 kts | 100° |
| 2026-05-06 14:28 | 2.09560 | 101.93254 | 9893 ft | 269 kts | 108° |
| 2026-05-06 14:28 | 2.09015 | 101.95047 | 9796 ft | 268 kts | 107° |
| 2026-05-06 14:28 | 2.08478 | 101.96832 | 9452 ft | 268 kts | 107° |
| 2026-05-06 14:29 | 2.08032 | 101.98628 | 9112 ft | 266 kts | 97° |
| 2026-05-06 14:29 | 2.07945 | 102.00475 | 8779 ft | 265 kts | 92° |
| 2026-05-06 14:29 | 2.07891 | 102.02315 | 8427 ft | 264 kts | 92° |
| 2026-05-06 14:29 | 2.07835 | 102.04124 | 8078 ft | 263 kts | 92° |
| 2026-05-06 14:30 | 2.07778 | 102.05950 | 7732 ft | 262 kts | 92° |
| 2026-05-06 14:30 | 2.07947 | 102.07750 | 7431 ft | 259 kts | 72° |
| 2026-05-06 14:30 | 2.08765 | 102.09274 | 7283 ft | 243 kts | 49° |
| 2026-05-06 14:30 | 2.10058 | 102.10306 | 7071 ft | 237 kts | 26° |
| 2026-05-06 14:31 | 2.11630 | 102.10740 | 6808 ft | 235 kts | 2° |
| 2026-05-06 14:31 | 2.13223 | 102.10527 | 6673 ft | 228 kts | 340° |
| 2026-05-06 14:31 | 2.14611 | 102.09812 | 6553 ft | 221 kts | 329° |
| 2026-05-06 14:31 | 2.15912 | 102.09041 | 6432 ft | 215 kts | 329° |
| 2026-05-06 14:32 | 2.17190 | 102.08289 | 6255 ft | 212 kts | 329° |
| 2026-05-06 14:32 | 2.18462 | 102.07545 | 6042 ft | 210 kts | 329° |
| 2026-05-06 14:32 | 2.19720 | 102.06809 | 5824 ft | 209 kts | 329° |
| 2026-05-06 14:32 | 2.20960 | 102.06082 | 5600 ft | 209 kts | 330° |
| 2026-05-06 14:33 | 2.22206 | 102.05351 | 5385 ft | 205 kts | 330° |
| 2026-05-06 14:33 | 2.23436 | 102.04629 | 5015 ft | 205 kts | 330° |
| 2026-05-06 14:33 | 2.24666 | 102.03907 | 4649 ft | 205 kts | 330° |
| 2026-05-06 14:33 | 2.25928 | 102.03166 | 4512 ft | 216 kts | 330° |
| 2026-05-06 14:34 | 2.27261 | 102.02384 | 4500 ft | 230 kts | 330° |
| 2026-05-06 14:34 | 2.28682 | 102.01550 | 4497 ft | 241 kts | 330° |
| 2026-05-06 14:34 | 2.30144 | 102.00689 | 4518 ft | 244 kts | 330° |
| 2026-05-06 14:34 | 2.31593 | 101.99836 | 4516 ft | 245 kts | 330° |
| 2026-05-06 14:35 | 2.33060 | 101.98973 | 4513 ft | 244 kts | 330° |
| 2026-05-06 14:35 | 2.34526 | 101.98109 | 4516 ft | 245 kts | 330° |
| 2026-05-06 14:35 | 2.35996 | 101.97243 | 4515 ft | 245 kts | 330° |
| 2026-05-06 14:35 | 2.37464 | 101.96379 | 4515 ft | 245 kts | 330° |
| 2026-05-06 14:36 | 2.38939 | 101.95511 | 4516 ft | 245 kts | 330° |
| 2026-05-06 14:36 | 2.40410 | 101.94645 | 4511 ft | 245 kts | 330° |
| 2026-05-06 14:36 | 2.41881 | 101.93780 | 4515 ft | 245 kts | 330° |
| 2026-05-06 14:36 | 2.43353 | 101.92913 | 4512 ft | 245 kts | 330° |
| 2026-05-06 14:37 | 2.44823 | 101.92047 | 4513 ft | 245 kts | 330° |
| 2026-05-06 14:37 | 2.46294 | 101.91182 | 4512 ft | 245 kts | 330° |
| 2026-05-06 14:37 | 2.47741 | 101.90326 | 4512 ft | 245 kts | 329° |
| 2026-05-06 14:37 | 2.49194 | 101.89396 | 4509 ft | 245 kts | 327° |
| 2026-05-06 14:38 | 2.50596 | 101.88457 | 4510 ft | 245 kts | 327° |
| 2026-05-06 14:38 | 2.52010 | 101.87506 | 4506 ft | 240 kts | 327° |
| 2026-05-06 14:38 | 2.53360 | 101.86600 | 4504 ft | 226 kts | 327° |
| 2026-05-06 14:38 | 2.54625 | 101.85752 | 4470 ft | 213 kts | 327° |
| 2026-05-06 14:39 | 2.55833 | 101.84943 | 4298 ft | 204 kts | 327° |
| 2026-05-06 14:39 | 2.56984 | 101.84172 | 4045 ft | 199 kts | 327° |
| 2026-05-06 14:39 | 2.58125 | 101.83408 | 3792 ft | 195 kts | 327° |
| 2026-05-06 14:39 | 2.59240 | 101.82660 | 3551 ft | 191 kts | 327° |
| 2026-05-06 14:40 | 2.60336 | 101.81926 | 3309 ft | 188 kts | 327° |
| 2026-05-06 14:40 | 2.61410 | 101.81206 | 3067 ft | 184 kts | 327° |
| 2026-05-06 14:40 | 2.62470 | 101.80495 | 2842 ft | 183 kts | 327° |
| 2026-05-06 14:40 | 2.63523 | 101.79790 | 2608 ft | 181 kts | 327° |
| 2026-05-06 14:41 | 2.64565 | 101.79091 | 2378 ft | 179 kts | 327° |
| 2026-05-06 14:41 | 2.65579 | 101.78412 | 2187 ft | 169 kts | 327° |
| 2026-05-06 14:41 | 2.66502 | 101.77792 | 1952 ft | 156 kts | 326° |
| 2026-05-06 14:41 | 2.67379 | 101.77205 | 1755 ft | 149 kts | 327° |
| 2026-05-06 14:42 | 2.68232 | 101.76633 | 1565 ft | 146 kts | 327° |
| 2026-05-06 14:42 | 2.69071 | 101.76071 | 1372 ft | 145 kts | 327° |
| 2026-05-06 14:42 | 2.69905 | 101.75512 | 1187 ft | 144 kts | 327° |
| 2026-05-06 14:42 | 2.70740 | 101.74952 | 1010 ft | 144 kts | 327° |
| 2026-05-06 14:43 | 2.71572 | 101.74394 | 853 ft | 143 kts | 327° |
| 2026-05-06 14:43 | 2.72391 | 101.73845 | 680 ft | 141 kts | 327° |
| 2026-05-06 14:43 | 2.73199 | 101.73304 | 509 ft | 140 kts | 326° |
| 2026-05-06 14:43 | 2.73995 | 101.72770 | 324 ft | 139 kts | 326° |
| 2026-05-06 14:44 | 2.74797 | 101.72233 | 141 ft | 138 kts | 326° |
| 2026-05-06 14:44 | 2.75561 | 101.71723 | 66 ft | 115 kts | 326° |
| 2026-05-06 14:44 | 2.75978 | 101.71443 | 71 ft | 38 kts | 326° |
| 2026-05-06 14:45 | 2.76437 | 101.71127 | 60 ft | 38 kts | 324° |
| 2026-05-06 14:45 | 2.76556 | 101.70974 | 62 ft | 15 kts | 296° |
| 2026-05-06 14:45 | 2.76585 | 101.70883 | 61 ft | 13 kts | 268° |
| 2026-05-06 14:45 | 2.76523 | 101.70845 | 65 ft | 10 kts | 165° |
| 2026-05-06 14:46 | 2.76471 | 101.70883 | 66 ft | 8 kts | 141° |
| 2026-05-06 14:46 | 2.76456 | 101.70894 | 61 ft | 0 kts | 144° |
| 2026-05-06 14:46 | 2.76449 | 101.70899 | 62 ft | 6 kts | 146° |
| 2026-05-06 14:46 | 2.76411 | 101.70925 | 64 ft | 6 kts | 145° |
| 2026-05-06 14:47 | 2.76378 | 101.70946 | 63 ft | 5 kts | 149° |
| 2026-05-06 14:47 | 2.76335 | 101.70971 | 63 ft | 8 kts | 148° |
| 2026-05-06 14:47 | 2.76275 | 101.71006 | 62 ft | 12 kts | 154° |
| 2026-05-06 14:47 | 2.76183 | 101.71033 | 66 ft | 15 kts | 169° |
| 2026-05-06 14:48 | 2.76085 | 101.71045 | 61 ft | 14 kts | 171° |
| 2026-05-06 14:48 | 2.76000 | 101.71082 | 65 ft | 13 kts | 149° |
| 2026-05-06 14:48 | 2.75926 | 101.71130 | 66 ft | 12 kts | 144° |
| 2026-05-06 14:48 | 2.75864 | 101.71175 | 66 ft | 10 kts | 143° |
| 2026-05-06 14:49 | 2.75814 | 101.71210 | 69 ft | 8 kts | 148° |
| 2026-05-06 14:49 | 2.75763 | 101.71242 | 68 ft | 13 kts | 146° |
| 2026-05-06 14:49 | 2.75660 | 101.71311 | 68 ft | 20 kts | 146° |
| 2026-05-06 14:49 | 2.75536 | 101.71394 | 70 ft | 22 kts | 146° |
| 2026-05-06 14:50 | 2.75425 | 101.71467 | 70 ft | 10 kts | 156° |
| 2026-05-06 14:50 | 2.75376 | 101.71441 | 62 ft | 7 kts | 238° |
| 2026-05-06 14:50 | 2.75332 | 101.71375 | 68 ft | 16 kts | 236° |
| 2026-05-06 14:50 | 2.75268 | 101.71279 | 65 ft | 18 kts | 237° |
| 2026-05-06 14:51 | 2.75196 | 101.71171 | 72 ft | 20 kts | 236° |
| 2026-05-06 14:51 | 2.75116 | 101.71055 | 68 ft | 13 kts | 237° |
| 2026-05-06 14:51 | 2.75049 | 101.71008 | 70 ft | 12 kts | 158° |
| 2026-05-06 14:51 | 2.74983 | 101.71051 | 68 ft | 11 kts | 148° |
| 2026-05-06 14:52 | 2.74924 | 101.71089 | 71 ft | 9 kts | 146° |
| 2026-05-06 14:52 | 2.74907 | 101.71101 | 62 ft | 0 kts | 146° |
| 2026-05-06 14:53 | 2.74889 | 101.71113 | 70 ft | 5 kts | 146° |
| 2026-05-06 14:53 | 2.74865 | 101.71131 | 71 ft | 4 kts | 141° |
| 2026-05-06 14:53 | 2.74840 | 101.71145 | 69 ft | 5 kts | 149° |
| 2026-05-06 14:53 | 2.74829 | 101.71165 | 68 ft | 2 kts | 78° |
| 2026-05-06 14:54 | 2.74838 | 101.71181 | 71 ft | 3 kts | 56° |
| 2026-05-06 14:54 | 2.74847 | 101.71195 | 66 ft | 2 kts | 54° |
| 2026-05-06 14:54 | 2.74854 | 101.71205 | 66 ft | 2 kts | 57° |
| 2026-05-06 14:54 | 2.74860 | 101.71214 | 70 ft | 2 kts | 57° |
| 2026-05-06 14:55 | 2.74866 | 101.71223 | 70 ft | 0 kts | 57° |